createdAt,value
2023-05-05T00:01:33.110Z,100494.89
2023-05-05T00:04:39.554Z,100495.97
2023-05-05T00:07:45.103Z,100493.58
2023-05-05T00:10:50.884Z,100498.84
2023-05-05T00:13:50.032Z,100494.41
2023-05-05T00:16:56.143Z,100500.95
2023-05-05T00:20:02.117Z,100494.30
2023-05-05T00:23:08.069Z,100500.98
2023-05-05T00:26:13.449Z,100507.20
2023-05-05T00:29:19.468Z,100501.22
2023-05-05T00:32:26.103Z,100495.92
2023-05-05T00:35:34.946Z,100492.16
2023-05-05T00:38:41.000Z,100495.42
2023-05-05T00:41:45.757Z,100492.36
2023-05-05T00:44:55.796Z,100493.09
2023-05-05T00:48:12.795Z,100497.01
2023-05-05T00:51:18.233Z,100487.77
2023-05-05T00:54:24.376Z,100486.92
2023-05-05T00:57:31.320Z,100480.94
2023-05-05T01:00:37.679Z,100480.27
2023-05-05T01:03:44.309Z,100481.80
2023-05-05T01:07:10.290Z,100477.23
2023-05-05T01:10:40.635Z,100471.09
2023-05-05T01:14:08.140Z,100470.03
2023-05-05T01:17:16.328Z,100470.38
2023-05-05T01:20:49.036Z,100464.70
2023-05-05T01:24:30.088Z,100468.81
2023-05-05T01:28:05.976Z,100465.31
2023-05-05T01:31:39.685Z,100466.18
2023-05-05T01:34:55.858Z,100462.31
2023-05-05T01:38:26.915Z,100467.67
2023-05-05T01:41:43.098Z,100466.17
2023-05-05T01:44:50.475Z,100463.97
2023-05-05T01:47:55.995Z,100461.77
2023-05-05T01:51:02.906Z,100465.55
2023-05-05T01:54:12.224Z,100465.56
2023-05-05T01:57:13.400Z,100459.25
2023-05-05T02:00:06.383Z,100456.00
2023-05-05T02:03:15.954Z,100452.60
2023-05-05T02:06:22.897Z,100456.38
2023-05-05T02:09:29.063Z,100458.59
2023-05-05T02:12:34.909Z,100462.88
2023-05-05T02:15:41.046Z,100461.00
2023-05-05T02:18:46.630Z,100456.23
2023-05-05T02:21:52.515Z,100458.11
2023-05-05T02:24:57.693Z,100450.06
2023-05-05T02:28:03.489Z,100454.67
2023-05-05T02:31:10.959Z,100453.64
2023-05-05T02:34:17.286Z,100449.58
2023-05-05T02:37:26.798Z,100454.01
2023-05-05T02:40:36.896Z,100452.97
2023-05-05T02:43:43.229Z,100457.59
2023-05-05T02:46:51.367Z,100456.38
2023-05-05T02:49:58.180Z,100451.89
2023-05-05T02:53:03.692Z,100453.24
2023-05-05T02:56:15.642Z,100452.09
2023-05-05T02:59:38.200Z,100449.91
2023-05-05T03:02:49.287Z,100454.52
2023-05-05T03:06:15.810Z,100455.66
2023-05-05T03:09:28.600Z,100453.77
2023-05-05T03:12:28.226Z,100461.55
2023-05-05T03:15:44.504Z,100459.78
2023-05-05T03:18:51.416Z,100460.67
2023-05-05T03:21:58.232Z,100471.09
2023-05-05T03:25:06.330Z,100469.42
2023-05-05T03:28:11.895Z,100461.39
2023-05-05T03:31:16.596Z,100469.42
2023-05-05T03:34:25.398Z,100473.21
2023-05-05T03:37:31.167Z,100470.23
2023-05-05T03:40:44.043Z,100469.68
2023-05-05T03:43:46.377Z,100473.89
2023-05-05T03:46:51.862Z,100481.50
2023-05-05T03:49:58.078Z,100492.16
2023-05-05T03:53:03.566Z,100490.55
2023-05-05T03:56:09.145Z,100486.88
2023-05-05T03:59:15.581Z,100492.92
2023-05-05T04:02:21.475Z,100491.13
2023-05-05T04:05:27.061Z,100483.63
2023-05-05T04:08:32.677Z,100484.31
2023-05-05T04:11:37.824Z,100480.68
2023-05-05T04:14:44.549Z,100480.95
2023-05-05T04:17:50.473Z,100474.85
2023-05-05T04:20:55.935Z,100468.92
2023-05-05T04:24:01.121Z,100476.19
2023-05-05T04:27:06.591Z,100480.03
2023-05-05T04:30:12.800Z,100481.09
2023-05-05T04:33:18.342Z,100490.35
2023-05-05T04:36:23.358Z,100492.45
2023-05-05T04:39:29.016Z,100491.63
2023-05-05T04:42:34.668Z,100488.24
2023-05-05T04:45:41.172Z,100489.96
2023-05-05T04:48:46.894Z,100485.30
2023-05-05T04:51:57.940Z,100482.88
2023-05-05T04:55:03.692Z,100483.83
2023-05-05T04:58:08.894Z,100483.37
2023-05-05T05:01:15.006Z,100483.54
2023-05-05T05:04:21.164Z,100483.58
2023-05-05T05:07:27.077Z,100473.97
2023-05-05T05:10:33.125Z,100472.84
2023-05-05T05:13:39.873Z,100464.33
2023-05-05T05:16:45.422Z,100461.28
2023-05-05T05:19:53.701Z,100451.78
2023-05-05T05:23:02.162Z,100453.87
2023-05-05T05:26:12.284Z,100450.44
2023-05-05T05:29:11.263Z,100453.08
2023-05-05T05:32:17.905Z,100455.22
2023-05-05T05:35:23.470Z,100452.42
2023-05-05T05:38:28.937Z,100454.30
2023-05-05T05:41:35.771Z,100461.27
2023-05-05T05:44:41.475Z,100458.11
2023-05-05T05:47:47.159Z,100457.33
2023-05-05T05:50:53.720Z,100462.78
2023-05-05T05:53:59.754Z,100464.23
2023-05-05T05:57:04.624Z,100469.97
2023-05-05T06:00:11.448Z,100471.48
2023-05-05T06:03:18.620Z,100472.00
2023-05-05T06:06:24.669Z,100470.48
2023-05-05T06:09:31.733Z,100466.20
2023-05-05T06:12:37.282Z,100454.66
2023-05-05T06:15:43.599Z,100457.56
2023-05-05T06:18:49.954Z,100450.27
2023-05-05T06:21:56.340Z,100445.44
2023-05-05T06:25:02.131Z,100443.28
2023-05-05T06:28:08.302Z,100439.59
2023-05-05T06:31:13.442Z,100441.88
2023-05-05T06:34:18.912Z,100439.06
2023-05-05T06:37:24.994Z,100439.78
2023-05-05T06:40:30.796Z,100434.11
2023-05-05T06:43:35.752Z,100438.32
2023-05-05T06:46:42.753Z,100438.32
2023-05-05T06:49:49.295Z,100439.00
2023-05-05T06:52:55.185Z,100434.23
2023-05-05T06:55:56.073Z,100426.14
2023-05-05T06:59:02.037Z,100432.57
2023-05-05T07:02:07.803Z,100422.34
2023-05-05T07:05:14.606Z,100426.52
2023-05-05T07:08:20.228Z,100424.95
2023-05-05T07:11:25.251Z,100422.07
2023-05-05T07:14:30.313Z,100418.61
2023-05-05T07:17:35.652Z,100415.39
2023-05-05T07:20:41.311Z,100421.15
2023-05-05T07:23:40.612Z,100414.23
2023-05-05T07:26:45.931Z,100416.17
2023-05-05T07:29:52.041Z,100409.66
2023-05-05T07:32:58.022Z,100406.55
2023-05-05T07:36:03.006Z,100408.78
2023-05-05T07:39:09.330Z,100408.34
2023-05-05T07:42:14.699Z,100405.16
2023-05-05T07:45:22.168Z,100407.47
2023-05-05T07:48:26.918Z,100400.58
2023-05-05T07:51:34.577Z,100405.55
2023-05-05T07:54:40.719Z,100399.52
2023-05-05T07:57:45.840Z,100393.39
2023-05-05T08:00:51.339Z,100394.84
2023-05-05T08:03:51.591Z,100390.16
2023-05-05T08:06:57.480Z,100388.05
2023-05-05T08:10:02.677Z,100387.66
2023-05-05T08:13:09.540Z,100383.37
2023-05-05T08:16:15.468Z,100385.66
2023-05-05T08:19:28.624Z,100381.45
2023-05-05T08:22:26.992Z,100378.33
2023-05-05T08:25:33.725Z,100377.41
2023-05-05T08:28:32.609Z,100377.23
2023-05-05T08:31:27.030Z,100370.38
2023-05-05T08:34:31.055Z,100367.84
2023-05-05T08:37:36.214Z,100371.65
2023-05-05T08:40:47.342Z,100374.47
2023-05-05T08:43:52.616Z,100367.87
2023-05-05T08:47:00.502Z,100361.75
2023-05-05T08:50:07.045Z,100368.72
2023-05-05T08:53:22.353Z,100361.85
2023-05-05T08:56:32.239Z,100363.41
2023-05-05T08:59:38.085Z,100363.53
2023-05-05T09:02:44.908Z,100360.33
2023-05-05T09:05:51.854Z,100358.67
2023-05-05T09:08:59.723Z,100358.47
2023-05-05T09:12:09.335Z,100358.95
2023-05-05T09:15:14.728Z,100355.24
2023-05-05T09:18:21.507Z,100347.91
2023-05-05T09:21:39.667Z,100348.30
2023-05-05T09:24:38.418Z,100351.79
2023-05-05T09:27:37.005Z,100354.22
2023-05-05T09:30:42.089Z,100354.22
2023-05-05T09:33:47.907Z,100348.65
2023-05-05T09:37:03.697Z,100348.35
2023-05-05T09:40:09.343Z,100348.55
2023-05-05T09:43:17.973Z,100341.97
2023-05-05T09:46:23.525Z,100341.41
2023-05-05T09:49:34.297Z,100336.57
2023-05-05T09:52:40.920Z,100335.27
2023-05-05T09:55:46.535Z,100331.66
2023-05-05T09:58:52.880Z,100326.76
2023-05-05T10:01:58.749Z,100334.47
2023-05-05T10:05:05.124Z,100337.34
2023-05-05T10:08:10.472Z,100335.00
2023-05-05T10:11:17.416Z,100339.41
2023-05-05T10:14:24.741Z,100329.52
2023-05-05T10:17:29.668Z,100335.18
2023-05-05T10:20:35.130Z,100328.99
2023-05-05T10:23:56.885Z,100322.39
2023-05-05T10:27:02.263Z,100332.97
2023-05-05T10:30:24.662Z,100326.66
2023-05-05T10:36:34.277Z,100327.00
2023-05-05T10:39:33.084Z,100320.72
2023-05-05T10:42:21.032Z,100316.48
2023-05-05T10:45:13.340Z,100319.84
2023-05-05T10:47:59.258Z,100312.86
2023-05-05T10:50:56.444Z,100312.66
2023-05-05T10:54:09.494Z,100312.45
2023-05-05T10:57:15.791Z,100314.40
2023-05-05T11:00:23.851Z,100313.64
2023-05-05T11:03:36.005Z,100309.15
2023-05-05T11:06:41.139Z,100312.52
2023-05-05T11:09:48.961Z,100302.89
2023-05-05T11:13:17.418Z,100299.53
2023-05-05T11:16:58.334Z,100298.27
2023-05-05T11:20:04.124Z,100305.09
2023-05-05T11:23:22.830Z,100293.75
2023-05-05T11:26:28.593Z,100290.20
2023-05-05T11:29:34.248Z,100289.52
2023-05-05T11:32:40.168Z,100286.93
2023-05-05T11:36:13.254Z,100282.84
2023-05-05T11:39:56.194Z,100288.88
2023-05-05T11:43:02.569Z,100278.14
2023-05-05T11:46:28.028Z,100275.34
2023-05-05T11:49:44.391Z,100276.03
2023-05-05T11:52:51.036Z,100266.50
2023-05-05T11:55:55.907Z,100267.50
2023-05-05T11:59:01.775Z,100262.00
2023-05-05T12:02:07.340Z,100263.93
2023-05-05T12:05:13.857Z,100255.51
2023-05-05T12:08:21.628Z,100257.41
2023-05-05T12:11:28.037Z,100254.50
2023-05-05T12:14:33.756Z,100252.30
2023-05-05T12:17:38.771Z,100247.72
2023-05-05T12:20:48.433Z,100248.27
2023-05-05T12:23:54.354Z,100242.72
2023-05-05T12:27:01.140Z,100237.48
2023-05-05T12:30:07.078Z,100238.02
2023-05-05T12:33:19.458Z,100232.63
2023-05-05T12:36:25.082Z,100231.71
2023-05-05T12:39:31.798Z,100219.89
2023-05-05T12:42:37.622Z,100215.91
2023-05-05T12:45:43.243Z,100215.11
2023-05-05T12:48:51.155Z,100213.16
2023-05-05T12:52:08.801Z,100207.13
2023-05-05T12:55:14.455Z,100205.18
2023-05-05T12:58:20.706Z,100204.25
2023-05-05T13:01:26.493Z,100201.27
2023-05-05T13:04:31.853Z,100196.06
2023-05-05T13:07:38.138Z,100198.56
2023-05-05T13:10:43.685Z,100198.98
2023-05-05T13:13:50.151Z,100200.45
2023-05-05T13:16:56.788Z,100195.88
2023-05-05T13:20:02.875Z,100199.06
2023-05-05T13:23:12.642Z,100192.94
2023-05-05T13:26:20.335Z,100192.98
2023-05-05T13:29:19.514Z,100193.55
2023-05-05T13:32:05.990Z,100185.05
2023-05-05T13:34:58.810Z,100188.91
2023-05-05T13:37:53.332Z,100185.89
2023-05-05T13:41:00.573Z,100182.45
2023-05-05T13:44:06.262Z,100175.53
2023-05-05T13:47:12.461Z,100175.63
2023-05-05T13:50:27.730Z,100183.67
2023-05-05T13:53:33.285Z,100178.41
2023-05-05T13:59:53.508Z,100169.07
2023-05-05T14:02:59.453Z,100169.14
2023-05-05T14:06:06.469Z,100164.54
2023-05-05T14:09:12.693Z,100163.72
2023-05-05T14:12:17.868Z,100172.89
2023-05-05T14:15:24.539Z,100166.65
2023-05-05T14:18:29.870Z,100161.30
2023-05-05T14:21:35.032Z,100157.94
2023-05-05T14:24:40.952Z,100159.77
2023-05-05T14:27:45.779Z,100163.48
2023-05-05T14:30:51.526Z,100152.34
2023-05-05T14:33:57.509Z,100153.16
2023-05-05T14:37:02.216Z,100150.44
2023-05-05T14:40:07.620Z,100149.75
2023-05-05T14:43:13.582Z,100143.31
2023-05-05T14:46:20.578Z,100141.87
2023-05-05T14:49:26.932Z,100144.31
2023-05-05T14:52:32.310Z,100138.48
2023-05-05T14:55:38.608Z,100144.81
2023-05-05T14:58:44.433Z,100144.10
2023-05-05T15:01:50.942Z,100138.38
2023-05-05T15:04:56.686Z,100140.03
2023-05-05T15:08:02.451Z,100135.16
2023-05-05T15:11:07.740Z,100130.70
2023-05-05T15:14:12.908Z,100131.88
2023-05-05T15:17:19.351Z,100120.96
2023-05-05T15:20:25.872Z,100128.44
2023-05-05T15:23:31.276Z,100119.86
2023-05-05T15:26:36.449Z,100127.96
2023-05-05T15:29:42.489Z,100120.09
2023-05-05T15:32:48.212Z,100117.97
2023-05-05T15:35:53.726Z,100119.88
2023-05-05T15:38:59.384Z,100116.66
2023-05-05T15:42:05.186Z,100120.31
2023-05-05T15:45:11.181Z,100113.23
2023-05-05T15:48:16.681Z,100113.62
2023-05-05T15:51:22.150Z,100115.66
2023-05-05T15:54:28.171Z,100114.75
2023-05-05T15:57:35.071Z,100110.10
2023-05-05T16:00:40.086Z,100105.84
2023-05-05T16:03:45.984Z,100104.73
2023-05-05T16:06:52.524Z,100113.12
2023-05-05T16:09:57.761Z,100113.81
2023-05-05T16:13:04.410Z,100112.16
2023-05-05T16:16:10.517Z,100109.63
2023-05-05T16:19:16.498Z,100106.85
2023-05-05T16:22:22.150Z,100110.91
2023-05-05T16:25:27.876Z,100112.16
2023-05-05T16:28:33.745Z,100109.73
2023-05-05T16:31:41.057Z,100109.55
2023-05-05T16:34:47.946Z,100115.98
2023-05-05T16:37:54.213Z,100109.42
2023-05-05T16:41:00.095Z,100108.70
2023-05-05T16:44:05.438Z,100112.63
2023-05-05T16:47:10.398Z,100114.82
2023-05-05T16:50:15.477Z,100116.70
2023-05-05T16:53:22.427Z,100109.34
2023-05-05T16:56:28.173Z,100110.50
2023-05-05T16:59:33.088Z,100107.97
2023-05-05T17:02:38.971Z,100113.81
2023-05-05T17:05:44.404Z,100110.95
2023-05-05T17:08:50.293Z,100116.39
2023-05-05T17:11:55.898Z,100119.33
2023-05-05T17:15:01.602Z,100123.91
2023-05-05T17:18:08.274Z,100125.12
2023-05-05T17:21:15.361Z,100121.69
2023-05-05T17:24:22.260Z,100130.19
2023-05-05T17:27:28.750Z,100130.79
2023-05-05T17:30:35.418Z,100138.08
2023-05-05T17:33:42.123Z,100142.11
2023-05-05T17:36:47.702Z,100139.12
2023-05-05T17:39:53.339Z,100137.73
2023-05-05T17:43:00.015Z,100139.31
2023-05-05T17:46:05.717Z,100138.59
2023-05-05T17:49:11.814Z,100141.70
2023-05-05T17:52:17.448Z,100141.55
2023-05-05T17:55:24.140Z,100142.64
2023-05-05T17:58:30.871Z,100140.45
2023-05-05T18:01:40.799Z,100140.45
2023-05-05T18:04:45.790Z,100140.17
2023-05-05T18:07:51.359Z,100143.89
2023-05-05T18:10:58.097Z,100140.32
2023-05-05T18:14:03.763Z,100141.13
2023-05-05T18:17:09.633Z,100142.19
2023-05-05T18:20:14.530Z,100147.70
2023-05-05T18:23:20.109Z,100147.80
2023-05-05T18:26:26.709Z,100144.29
2023-05-05T18:29:35.237Z,100141.75
2023-05-05T18:32:40.081Z,100140.69
2023-05-05T18:35:46.264Z,100141.10
2023-05-05T18:38:51.970Z,100145.35
2023-05-05T18:41:57.226Z,100142.60
2023-05-05T18:45:02.998Z,100139.97
2023-05-05T18:48:09.499Z,100139.63
2023-05-05T18:51:19.658Z,100136.24
2023-05-05T18:54:25.627Z,100141.01
2023-05-05T18:57:47.674Z,100138.34
2023-05-05T19:00:53.629Z,100146.30
2023-05-05T19:04:03.346Z,100146.52
2023-05-05T19:07:09.837Z,100148.63
2023-05-05T19:10:16.466Z,100146.22
2023-05-05T19:13:24.041Z,100144.84
2023-05-05T19:16:30.641Z,100146.20
2023-05-05T19:19:37.084Z,100143.89
2023-05-05T19:22:36.601Z,100142.59
2023-05-05T19:25:22.757Z,100137.33
2023-05-05T19:28:15.385Z,100146.92
2023-05-05T19:31:00.773Z,100145.25
2023-05-05T19:33:55.542Z,100145.63
2023-05-05T19:36:42.345Z,100142.20
2023-05-05T19:39:35.099Z,100146.30
2023-05-05T19:42:28.090Z,100147.19
2023-05-05T19:45:33.736Z,100145.77
2023-05-05T19:48:38.797Z,100141.55
2023-05-05T19:51:43.791Z,100138.15
2023-05-05T19:54:50.740Z,100139.73
2023-05-05T19:57:56.668Z,100136.66
2023-05-05T20:01:02.308Z,100140.05
2023-05-05T20:04:11.710Z,100133.80
2023-05-05T20:07:18.397Z,100136.90
2023-05-05T20:10:25.049Z,100133.28
2023-05-05T20:13:31.688Z,100132.63
2023-05-05T20:16:36.882Z,100137.20
2023-05-05T20:19:43.421Z,100139.75
2023-05-05T20:22:49.665Z,100138.99
2023-05-05T20:25:56.177Z,100136.23
2023-05-05T20:29:01.761Z,100136.56
2023-05-05T20:32:07.152Z,100140.68
2023-05-05T20:35:13.069Z,100141.84
2023-05-05T20:38:19.734Z,100136.91
2023-05-05T20:41:26.148Z,100142.95
2023-05-05T20:44:31.789Z,100141.17
2023-05-05T20:47:37.321Z,100140.59
2023-05-05T20:50:43.570Z,100147.56
2023-05-05T20:53:48.756Z,100146.29
2023-05-05T20:56:55.015Z,100143.75
2023-05-05T21:00:00.136Z,100146.11
2023-05-05T21:03:06.232Z,100140.45
2023-05-05T21:06:12.092Z,100143.52
2023-05-05T21:09:17.570Z,100143.06
2023-05-05T21:12:22.584Z,100139.53
2023-05-05T21:15:27.785Z,100146.17
2023-05-05T21:18:34.464Z,100138.85
2023-05-05T21:21:40.641Z,100139.06
2023-05-05T21:24:47.187Z,100135.55
2023-05-05T21:27:53.877Z,100131.04
2023-05-05T21:31:20.501Z,100135.15
2023-05-05T21:34:07.452Z,100133.11
2023-05-05T21:37:13.495Z,100133.01
2023-05-05T21:40:23.385Z,100134.64
2023-05-05T21:43:28.572Z,100141.38
2023-05-05T21:46:33.933Z,100140.48
2023-05-05T21:49:39.014Z,100132.10
2023-05-05T21:52:44.552Z,100135.87
2023-05-05T21:55:49.709Z,100138.09
2023-05-05T21:58:55.328Z,100135.87
2023-05-05T22:02:03.717Z,100135.92
2023-05-05T22:05:09.370Z,100142.93
2023-05-05T22:08:15.084Z,100150.22
2023-05-05T22:11:21.200Z,100143.78
2023-05-05T22:14:26.870Z,100143.35
2023-05-05T22:17:34.207Z,100145.50
2023-05-05T22:20:39.663Z,100149.62
2023-05-05T22:23:45.799Z,100146.20
2023-05-05T22:26:51.981Z,100147.05
2023-05-05T22:29:58.721Z,100157.08
2023-05-05T22:33:06.031Z,100156.44
2023-05-05T22:36:11.296Z,100152.59
2023-05-05T22:39:16.162Z,100150.98
2023-05-05T22:42:21.298Z,100150.67
2023-05-05T22:45:28.959Z,100152.42
2023-05-05T22:48:34.286Z,100148.58
2023-05-05T22:51:40.089Z,100149.42
2023-05-05T22:54:44.786Z,100152.74
2023-05-05T22:57:51.154Z,100149.66
2023-05-05T23:00:57.948Z,100148.55
2023-05-05T23:04:04.184Z,100142.02
2023-05-05T23:07:09.786Z,100142.02
2023-05-05T23:10:16.540Z,100147.61
2023-05-05T23:13:22.434Z,100151.14
2023-05-05T23:16:28.272Z,100153.94
2023-05-05T23:19:35.649Z,100150.67
2023-05-05T23:22:40.510Z,100159.89
2023-05-05T23:25:46.053Z,100157.00
2023-05-05T23:28:51.904Z,100154.93
2023-05-05T23:31:56.747Z,100153.77
2023-05-05T23:34:54.326Z,100160.30
2023-05-05T23:37:47.241Z,100167.20
2023-05-05T23:40:46.031Z,100167.73
2023-05-05T23:43:51.191Z,100165.19
2023-05-05T23:46:55.948Z,100168.70
2023-05-05T23:50:00.838Z,100170.34
2023-05-05T23:53:06.566Z,100166.95
2023-05-05T23:56:12.909Z,100167.32
2023-05-05T23:59:18.855Z,100164.88
